createdAt,value
2022-11-07T05:17:38.934Z,88.79
2022-11-07T05:20:05.963Z,88.43
2022-11-07T05:22:56.006Z,88.04
2022-11-07T05:25:22.768Z,87.59
2022-11-07T05:27:49.143Z,87.83
2022-11-07T05:30:15.615Z,87.42
2022-11-07T05:32:42.280Z,87.16
2022-11-07T05:35:09.126Z,86.99
2022-11-07T05:37:35.545Z,86.48
2022-11-07T05:40:02.003Z,86.88
2022-11-07T05:42:28.471Z,87.00
2022-11-07T05:44:54.912Z,86.56
2022-11-07T05:47:21.332Z,86.45
2022-11-07T05:49:47.728Z,85.84
2022-11-07T05:52:14.305Z,85.96
2022-11-07T05:54:41.878Z,85.55
2022-11-07T05:57:09.409Z,86.03
2022-11-07T05:59:35.869Z,85.96
2022-11-07T06:02:03.551Z,85.61
2022-11-07T06:04:30.272Z,85.33
2022-11-07T06:06:56.875Z,84.92
2022-11-07T06:09:23.271Z,84.76
2022-11-07T06:11:49.741Z,84.78
2022-11-07T06:14:16.406Z,84.65
2022-11-07T06:16:42.880Z,84.98
2022-11-07T06:19:09.268Z,84.67
2022-11-07T06:21:35.732Z,84.36
2022-11-07T06:24:02.194Z,84.15
2022-11-07T06:26:29.566Z,84.35
2022-11-07T06:28:56.009Z,84.39
2022-11-07T06:31:22.508Z,84.80
2022-11-07T06:33:51.034Z,85.38
2022-11-07T06:36:18.018Z,85.29
2022-11-07T06:38:44.544Z,85.73
2022-11-07T06:41:14.984Z,85.76
2022-11-07T06:43:42.373Z,85.98
2022-11-07T06:46:12.672Z,86.43
2022-11-07T06:48:39.779Z,86.50
2022-11-07T06:51:07.597Z,86.30
2022-11-07T06:53:34.101Z,86.09
2022-11-07T06:56:01.431Z,86.13
2022-11-07T06:58:27.944Z,85.57
2022-11-07T07:00:58.489Z,85.20
2022-11-07T07:03:25.080Z,85.27
2022-11-07T07:05:51.726Z,85.53
2022-11-07T07:08:18.230Z,84.98
2022-11-07T07:10:45.870Z,84.38
2022-11-07T07:13:14.025Z,84.72
2022-11-07T07:15:51.308Z,85.61
2022-11-07T07:18:19.602Z,85.08
2022-11-07T07:20:47.117Z,85.05
2022-11-07T07:23:13.668Z,83.60
2022-11-07T07:25:40.172Z,84.35
2022-11-07T07:28:06.603Z,84.78
2022-11-07T07:30:33.522Z,84.06
2022-11-07T07:33:00.156Z,83.73
2022-11-07T07:35:26.724Z,83.06
2022-11-07T07:37:53.612Z,83.50
2022-11-07T07:40:20.379Z,83.14
2022-11-07T07:42:47.903Z,83.01
2022-11-07T07:45:15.887Z,82.43
2022-11-07T07:47:44.671Z,82.35
2022-11-07T07:50:12.879Z,81.72
2022-11-07T07:52:39.416Z,81.66
2022-11-07T07:55:11.376Z,81.59
2022-11-07T07:57:39.250Z,81.44
2022-11-07T08:00:06.321Z,81.21
2022-11-07T08:02:38.550Z,80.44
2022-11-07T08:05:05.480Z,81.61
2022-11-07T08:07:31.880Z,80.99
2022-11-07T08:10:02.115Z,80.85
2022-11-07T08:12:31.925Z,80.16
2022-11-07T08:14:58.326Z,80.18
2022-11-07T08:17:24.767Z,80.18
2022-11-07T08:19:51.294Z,80.06
2022-11-07T08:22:17.734Z,80.44
2022-11-07T08:24:46.243Z,80.13
2022-11-07T08:27:12.687Z,79.89
2022-11-07T08:29:39.114Z,79.24
2022-11-07T08:32:05.694Z,79.45
2022-11-07T08:34:32.214Z,79.00
2022-11-07T08:36:58.729Z,78.69
2022-11-07T08:39:25.250Z,78.68
2022-11-07T08:41:53.761Z,78.83
2022-11-07T08:44:21.398Z,78.30
2022-11-07T08:46:51.262Z,78.08
2022-11-07T08:49:17.810Z,78.30
2022-11-07T08:51:48.912Z,78.51
2022-11-07T08:54:15.684Z,78.17
2022-11-07T08:56:42.178Z,77.55
2022-11-07T08:59:09.851Z,77.84
2022-11-07T09:01:55.971Z,77.61
2022-11-07T09:04:23.141Z,77.50
2022-11-07T09:06:49.642Z,77.11
2022-11-07T09:09:18.503Z,76.53
2022-11-07T09:11:44.958Z,76.12
2022-11-07T09:14:11.394Z,76.59
2022-11-07T09:16:37.829Z,76.40
2022-11-07T09:19:04.286Z,77.54
2022-11-07T09:21:30.834Z,77.71
2022-11-07T09:23:57.268Z,77.11
2022-11-07T09:26:23.816Z,77.02
2022-11-07T09:28:53.118Z,77.29
2022-11-07T09:31:22.016Z,76.53
2022-11-07T09:33:48.577Z,77.24
2022-11-07T09:36:15.129Z,77.07
2022-11-07T09:38:41.624Z,76.80
2022-11-07T09:41:29.615Z,76.86
2022-11-07T09:44:08.288Z,76.80
2022-11-07T09:47:06.875Z,76.50
2022-11-07T09:49:44.539Z,77.14
2022-11-07T09:52:17.083Z,76.57
2022-11-07T09:54:50.593Z,75.94
2022-11-07T09:57:18.867Z,76.75
2022-11-07T09:59:51.465Z,76.19
2022-11-07T10:02:21.721Z,76.22
2022-11-07T10:04:55.666Z,76.08
2022-11-07T10:07:32.393Z,75.19
2022-11-07T10:10:21.046Z,74.68
2022-11-07T10:12:57.710Z,74.70
2022-11-07T10:15:30.238Z,74.55
2022-11-07T10:18:23.893Z,74.39
2022-11-07T10:21:37.259Z,74.08
2022-11-07T10:24:27.871Z,73.94
2022-11-07T10:26:56.222Z,74.28
2022-11-07T10:29:27.151Z,73.98
2022-11-07T10:32:08.984Z,74.58
2022-11-07T10:34:41.809Z,74.26
2022-11-07T10:37:09.265Z,74.44
2022-11-07T10:39:35.718Z,74.53
2022-11-07T10:42:08.269Z,74.51
2022-11-07T10:44:35.424Z,74.84
2022-11-07T10:47:03.404Z,74.03
2022-11-07T10:49:31.804Z,73.85
2022-11-07T10:52:25.757Z,74.31
2022-11-07T10:54:52.398Z,74.71
2022-11-07T10:57:22.280Z,75.13
2022-11-07T10:59:51.810Z,74.54
2022-11-07T11:02:19.610Z,74.21
2022-11-07T11:04:55.745Z,75.56
2022-11-07T11:07:28.644Z,77.10
2022-11-07T11:09:57.684Z,77.42
2022-11-07T11:12:34.709Z,77.17
2022-11-07T11:15:14.066Z,77.97
2022-11-07T11:17:41.280Z,77.76
2022-11-07T11:20:28.728Z,77.24
2022-11-07T11:22:55.328Z,77.30
2022-11-07T11:25:23.815Z,76.35
2022-11-07T11:28:05.870Z,75.17
2022-11-07T11:30:35.821Z,75.40
2022-11-07T11:33:16.121Z,74.75
2022-11-07T11:36:22.996Z,73.10
2022-11-07T11:38:55.345Z,72.79
2022-11-07T11:41:36.643Z,72.29
2022-11-07T11:44:06.701Z,71.26
2022-11-07T11:46:57.626Z,71.76
2022-11-07T11:49:40.241Z,71.37
2022-11-07T11:52:16.754Z,71.33
2022-11-07T11:54:48.358Z,71.69
2022-11-07T11:57:23.043Z,71.19
2022-11-07T12:00:02.997Z,71.04
2022-11-07T12:02:46.812Z,71.04
2022-11-07T12:05:38.093Z,70.94
2022-11-07T12:08:14.194Z,71.00
2022-11-07T12:11:02.398Z,71.03
2022-11-07T12:13:51.357Z,70.51
2022-11-07T12:16:39.786Z,70.85
2022-11-07T12:19:29.585Z,70.41
2022-11-07T12:22:24.191Z,70.23
2022-11-07T12:25:00.110Z,69.66
2022-11-07T12:27:42.070Z,69.60
2022-11-07T12:30:09.077Z,69.56
2022-11-07T12:33:01.198Z,69.76
2022-11-07T12:35:36.804Z,69.61
2022-11-07T12:38:11.602Z,69.33
2022-11-07T12:41:17.399Z,69.66
2022-11-07T12:44:14.928Z,69.65
2022-11-07T12:46:47.603Z,69.26
2022-11-07T12:49:40.800Z,69.01
2022-11-07T12:52:30.105Z,69.20
2022-11-07T12:55:02.154Z,69.51
2022-11-07T12:57:34.253Z,68.91
2022-11-07T13:00:15.569Z,68.89
2022-11-07T13:03:30.429Z,69.16
2022-11-07T13:06:22.086Z,69.16
2022-11-07T13:08:58.670Z,69.32
2022-11-07T13:12:09.740Z,69.06
2022-11-07T13:14:41.909Z,68.75
2022-11-07T13:17:08.403Z,69.16
2022-11-07T13:19:37.158Z,69.15
2022-11-07T13:22:06.589Z,69.11
2022-11-07T13:24:51.206Z,68.92
2022-11-07T13:27:24.813Z,68.92
2022-11-07T13:29:51.935Z,68.65
2022-11-07T13:32:18.507Z,68.54
2022-11-07T13:34:47.795Z,68.70
2022-11-07T13:37:40.221Z,68.97
2022-11-07T13:40:25.288Z,69.04
2022-11-07T13:43:13.699Z,69.09
2022-11-07T13:45:40.163Z,68.83
2022-11-07T13:48:16.333Z,68.87
2022-11-07T13:50:50.267Z,68.75
2022-11-07T13:53:19.943Z,69.04
2022-11-07T13:55:56.678Z,68.82
2022-11-07T13:58:25.225Z,69.64
2022-11-07T14:00:51.777Z,69.45
2022-11-07T14:03:28.219Z,68.98
2022-11-07T14:05:56.045Z,69.85
2022-11-07T14:11:23.115Z,69.10
2022-11-07T14:13:52.722Z,69.32
2022-11-07T14:16:23.248Z,69.16
2022-11-07T14:18:55.169Z,69.86
2022-11-07T14:21:28.525Z,70.05
2022-11-07T14:23:55.652Z,70.10
2022-11-07T14:26:32.938Z,69.95
2022-11-07T14:29:03.669Z,69.68
2022-11-07T14:31:34.029Z,70.19
2022-11-07T14:34:21.133Z,69.89
2022-11-07T14:36:48.707Z,69.94
2022-11-07T14:39:16.078Z,70.68
2022-11-07T14:41:44.601Z,70.83
2022-11-07T14:44:19.190Z,70.72
2022-11-07T14:46:48.673Z,70.95
2022-11-07T14:49:28.794Z,71.12
2022-11-07T14:51:56.363Z,70.47
2022-11-07T14:54:31.644Z,71.10
2022-11-07T14:56:59.256Z,71.56
2022-11-07T14:59:27.272Z,71.44
2022-11-07T15:01:57.644Z,71.83
2022-11-07T15:04:35.544Z,70.86
2022-11-07T15:07:26.294Z,70.79
2022-11-07T15:09:55.103Z,71.50
2022-11-07T15:12:27.025Z,71.64
2022-11-07T15:15:19.042Z,71.68
2022-11-07T15:17:52.458Z,70.87
2022-11-07T15:20:38.299Z,71.27
2022-11-07T15:23:27.164Z,71.17
2022-11-07T15:26:06.595Z,71.91
2022-11-07T15:28:42.171Z,72.20
2022-11-07T15:31:25.566Z,72.25
2022-11-07T15:33:54.542Z,71.54
2022-11-07T15:36:21.078Z,72.19
2022-11-07T15:38:49.095Z,72.98
2022-11-07T15:41:15.761Z,72.67
2022-11-07T15:43:42.359Z,73.05
2022-11-07T15:46:40.040Z,73.12
2022-11-07T15:49:07.581Z,73.15
2022-11-07T15:51:35.207Z,73.60
2022-11-07T15:54:02.727Z,73.55
2022-11-07T15:56:30.353Z,73.89
2022-11-07T15:58:59.495Z,74.12
2022-11-07T16:01:27.169Z,74.04
2022-11-07T16:03:57.093Z,74.49
2022-11-07T16:06:28.273Z,74.10
2022-11-07T16:08:56.468Z,74.54
2022-11-07T16:11:24.175Z,74.62
2022-11-07T16:13:59.273Z,74.34
2022-11-07T16:16:35.626Z,73.88
2022-11-07T16:19:03.423Z,73.83
2022-11-07T16:21:30.926Z,73.59
2022-11-07T16:23:57.766Z,73.78
2022-11-07T16:26:29.583Z,74.21
2022-11-07T16:28:56.156Z,74.05
2022-11-07T16:31:23.771Z,74.10
2022-11-07T16:33:53.582Z,73.87
2022-11-07T16:36:24.235Z,74.18
2022-11-07T16:38:51.351Z,75.08
2022-11-07T16:41:18.201Z,74.78
2022-11-07T16:43:46.334Z,75.50
2022-11-07T16:46:19.961Z,75.37
2022-11-07T16:48:52.911Z,75.76
2022-11-07T16:51:21.217Z,75.23
2022-11-07T16:53:48.490Z,76.12
2022-11-07T16:56:31.074Z,75.56
2022-11-07T16:58:58.312Z,75.40
2022-11-07T17:01:26.839Z,75.76
2022-11-07T17:03:56.381Z,75.91
2022-11-07T17:06:34.650Z,75.85
2022-11-07T17:09:08.938Z,76.63
2022-11-07T17:11:37.670Z,75.80
2022-11-07T17:14:04.325Z,76.38
2022-11-07T17:16:34.834Z,77.00
2022-11-07T17:19:01.796Z,77.48
2022-11-07T17:21:37.607Z,78.14
2022-11-07T17:24:04.857Z,77.76
2022-11-07T17:26:35.079Z,78.35
2022-11-07T17:29:04.788Z,78.55
2022-11-07T17:31:37.320Z,78.60
2022-11-07T17:34:03.930Z,77.76
2022-11-07T17:36:37.171Z,78.19
2022-11-07T17:39:11.667Z,78.00
2022-11-07T17:41:43.579Z,78.00
2022-11-07T17:44:11.090Z,77.76
2022-11-07T17:46:42.035Z,77.23
2022-11-07T17:49:14.852Z,77.38
2022-11-07T17:51:42.128Z,77.47
2022-11-07T17:54:16.759Z,77.80
2022-11-07T17:56:46.686Z,77.99
2022-11-07T17:59:26.781Z,77.69
2022-11-07T18:01:57.518Z,77.23
2022-11-07T18:04:38.955Z,77.37
2022-11-07T18:07:14.617Z,77.39
2022-11-07T18:09:41.661Z,77.02
2022-11-07T18:12:09.618Z,77.55
2022-11-07T18:17:23.064Z,77.67
2022-11-07T18:19:49.787Z,77.82
2022-11-07T18:22:17.595Z,77.77
2022-11-07T18:24:46.502Z,77.48
2022-11-07T18:27:16.322Z,77.81
2022-11-07T18:29:43.036Z,78.18
2022-11-07T18:32:09.660Z,78.14
2022-11-07T18:34:36.181Z,77.91
2022-11-07T18:37:02.601Z,77.67
2022-11-07T18:39:29.106Z,78.03
2022-11-07T18:41:55.700Z,78.92
2022-11-07T18:44:22.548Z,79.47
2022-11-07T18:46:49.067Z,79.46
2022-11-07T18:49:19.738Z,79.84
2022-11-07T18:51:46.425Z,79.45
2022-11-07T18:54:13.917Z,79.96
2022-11-07T18:56:41.317Z,79.74
2022-11-07T18:59:07.866Z,79.34
2022-11-07T19:01:37.641Z,79.63
2022-11-07T19:04:05.926Z,78.75
2022-11-07T19:06:36.372Z,78.92
2022-11-07T19:09:03.700Z,78.02
2022-11-07T19:11:37.281Z,78.18
2022-11-07T19:14:03.860Z,77.81
2022-11-07T19:16:30.751Z,77.82
2022-11-07T19:18:59.594Z,77.65
2022-11-07T19:21:26.386Z,77.88
2022-11-07T19:23:52.926Z,77.50
2022-11-07T19:26:19.846Z,77.99
2022-11-07T19:28:47.007Z,78.30
2022-11-07T19:31:14.188Z,78.31
2022-11-07T19:33:41.559Z,78.03
2022-11-07T19:36:14.126Z,77.86
2022-11-07T19:38:40.846Z,77.72
2022-11-07T19:41:11.631Z,77.62
2022-11-07T19:43:42.408Z,77.67
2022-11-07T19:46:14.839Z,77.99
2022-11-07T19:48:41.549Z,78.08
2022-11-07T19:51:09.918Z,77.87
2022-11-07T19:53:36.380Z,78.48
2022-11-07T19:56:08.599Z,78.29
2022-11-07T19:58:36.691Z,79.10
2022-11-07T20:01:12.949Z,79.46
2022-11-07T20:03:39.569Z,79.91
2022-11-07T20:06:10.305Z,80.69
2022-11-07T20:08:37.151Z,80.77
2022-11-07T20:11:03.864Z,81.65
2022-11-07T20:13:30.395Z,81.37
2022-11-07T20:15:57.841Z,81.16
2022-11-07T20:18:24.689Z,81.75
2022-11-07T20:20:51.189Z,80.95
2022-11-07T20:23:17.810Z,80.82
2022-11-07T20:25:44.512Z,80.61
2022-11-07T20:28:10.919Z,80.91
2022-11-07T20:30:41.123Z,80.78
2022-11-07T20:33:10.588Z,80.86
2022-11-07T20:35:37.195Z,80.60
2022-11-07T20:38:05.789Z,82.12
2022-11-07T20:40:32.526Z,82.20
2022-11-07T20:43:01.646Z,82.67
2022-11-07T20:45:28.396Z,82.95
2022-11-07T20:47:54.901Z,82.73
2022-11-07T20:50:21.366Z,83.09
2022-11-07T20:52:47.804Z,83.26
2022-11-07T20:55:14.294Z,82.38
2022-11-07T20:57:41.017Z,83.06
2022-11-07T21:00:08.181Z,82.17
2022-11-07T21:02:34.682Z,82.37
2022-11-07T21:05:20.257Z,83.51
2022-11-07T21:07:48.277Z,83.46
2022-11-07T21:10:14.883Z,83.66
2022-11-07T21:12:42.762Z,83.04
2022-11-07T21:15:10.147Z,82.93
2022-11-07T21:17:37.231Z,82.64
2022-11-07T21:20:05.315Z,82.03
2022-11-07T21:22:31.828Z,81.39
2022-11-07T21:24:58.535Z,81.01
2022-11-07T21:27:24.962Z,81.68
2022-11-07T21:29:51.432Z,81.85
2022-11-07T21:32:17.864Z,82.03
2022-11-07T21:34:46.200Z,82.42
2022-11-07T21:37:12.645Z,83.42
2022-11-07T21:39:39.112Z,83.53
2022-11-07T21:42:05.691Z,83.64
2022-11-07T21:44:32.336Z,83.94
2022-11-07T21:46:58.883Z,83.72
2022-11-07T21:49:25.287Z,84.06
2022-11-07T21:51:51.838Z,84.64
2022-11-07T21:54:18.356Z,84.67
2022-11-07T21:56:44.815Z,85.45
2022-11-07T21:59:12.171Z,84.96
2022-11-07T22:01:39.748Z,84.33
2022-11-07T22:04:09.997Z,84.39
2022-11-07T22:06:39.504Z,84.18
2022-11-07T22:09:07.273Z,85.36
2022-11-07T22:11:33.719Z,84.72
2022-11-07T22:14:00.248Z,84.66
2022-11-07T22:16:27.045Z,83.86
2022-11-07T22:18:53.512Z,83.97
2022-11-07T22:21:22.871Z,82.75
2022-11-07T22:23:50.841Z,82.95
2022-11-07T22:26:22.769Z,83.57
2022-11-07T22:28:49.486Z,83.91
2022-11-07T22:31:22.845Z,84.54
2022-11-07T22:33:50.341Z,85.78
2022-11-07T22:36:17.809Z,85.37
2022-11-07T22:38:44.566Z,85.86
2022-11-07T22:41:14.766Z,85.97
2022-11-07T22:43:41.477Z,84.11
2022-11-07T22:46:13.744Z,82.64
2022-11-07T22:48:41.247Z,82.11
2022-11-07T22:51:46.963Z,81.63
2022-11-07T22:54:13.816Z,81.56
2022-11-07T22:56:40.846Z,81.80
2022-11-07T22:59:07.509Z,82.43
